createdAt,value
2016-09-19T00:00:19.451Z,1011.01
2016-09-19T00:00:59.991Z,1011.02
2016-09-19T00:01:40.533Z,1011.02
2016-09-19T00:02:21.061Z,1011.03
2016-09-19T00:03:01.610Z,1010.99
2016-09-19T00:03:42.157Z,1010.98
2016-09-19T00:04:22.699Z,1010.99
2016-09-19T00:05:03.233Z,1010.98
2016-09-19T00:05:43.777Z,1010.99
2016-09-19T00:06:24.321Z,1010.98
2016-09-19T00:07:04.866Z,1010.96
2016-09-19T00:07:45.415Z,1010.93
2016-09-19T00:08:25.961Z,1010.97
2016-09-19T00:09:06.492Z,1010.98
2016-09-19T00:09:47.038Z,1010.95
2016-09-19T00:10:27.575Z,1010.97
2016-09-19T00:11:08.114Z,1010.92
2016-09-19T00:11:48.672Z,1010.95
2016-09-19T00:12:29.192Z,1010.96
2016-09-19T00:13:09.741Z,1010.95
2016-09-19T00:13:50.287Z,1010.98
2016-09-19T00:14:30.830Z,1010.99
2016-09-19T00:15:11.375Z,1010.95
2016-09-19T00:15:51.926Z,1010.96
2016-09-19T00:16:32.472Z,1010.94
2016-09-19T00:17:13.013Z,1010.94
2016-09-19T00:17:53.548Z,1010.97
2016-09-19T00:18:34.092Z,1010.93
2016-09-19T00:19:14.623Z,1010.96
2016-09-19T00:19:55.166Z,1010.96
2016-09-19T00:20:35.713Z,1010.99
2016-09-19T00:21:16.260Z,1010.92
2016-09-19T00:21:56.800Z,1011
2016-09-19T00:22:37.344Z,1010.97
2016-09-19T00:23:17.890Z,1010.96
2016-09-19T00:23:58.435Z,1010.97
2016-09-19T00:24:38.980Z,1010.97
2016-09-19T00:25:19.522Z,1010.95
2016-09-19T00:26:00.071Z,1010.96
2016-09-19T00:26:40.614Z,1010.97
2016-09-19T00:27:21.155Z,1010.99
2016-09-19T00:28:01.701Z,1010.98
2016-09-19T00:28:42.240Z,1010.96
2016-09-19T00:29:22.777Z,1010.97
2016-09-19T00:30:03.336Z,1010.96
2016-09-19T00:30:43.882Z,1010.95
2016-09-19T00:31:24.423Z,1010.95
2016-09-19T00:32:04.968Z,1010.94
2016-09-19T00:32:45.513Z,1010.97
2016-09-19T00:33:26.061Z,1010.95
2016-09-19T00:34:06.602Z,1010.96
2016-09-19T00:34:47.149Z,1010.94
2016-09-19T00:35:27.690Z,1010.91
2016-09-19T00:36:08.233Z,1010.96
2016-09-19T00:36:48.777Z,1010.94
2016-09-19T00:37:29.329Z,1010.95
2016-09-19T00:38:09.867Z,1010.94
2016-09-19T00:38:50.410Z,1010.93
2016-09-19T00:39:30.957Z,1010.94
2016-09-19T00:40:11.490Z,1010.95
2016-09-19T00:40:52.025Z,1010.98
2016-09-19T00:41:32.582Z,1010.98
2016-09-19T00:42:13.131Z,1010.97
2016-09-19T00:42:53.672Z,1010.96
2016-09-19T00:43:34.217Z,1010.95
2016-09-19T00:44:14.760Z,1010.96
2016-09-19T00:44:55.307Z,1010.96
2016-09-19T00:45:35.848Z,1010.95
2016-09-19T00:46:16.389Z,1010.95
2016-09-19T00:46:56.926Z,1010.97
2016-09-19T00:47:37.460Z,1010.94
2016-09-19T00:48:18.005Z,1010.96
2016-09-19T00:48:58.555Z,1010.94
2016-09-19T00:49:39.087Z,1010.93
2016-09-19T00:50:19.626Z,1010.92
2016-09-19T00:51:00.177Z,1010.96
2016-09-19T00:51:40.718Z,1010.95
2016-09-19T00:52:21.261Z,1010.95
2016-09-19T00:53:01.788Z,1010.97
2016-09-19T00:53:42.320Z,1010.96
2016-09-19T00:54:22.867Z,1010.95
2016-09-19T00:55:03.401Z,1010.96
2016-09-19T00:55:43.947Z,1010.95
2016-09-19T00:56:24.494Z,1010.95
2016-09-19T00:57:05.061Z,1010.98
2016-09-19T00:57:45.592Z,1010.94
2016-09-19T00:58:26.138Z,1010.95
2016-09-19T00:59:06.684Z,1010.96
2016-09-19T00:59:47.225Z,1010.92
2016-09-19T01:00:27.772Z,1010.93
2016-09-19T01:01:08.318Z,1010.95
2016-09-19T01:01:48.860Z,1010.93
2016-09-19T01:02:29.396Z,1010.93
2016-09-19T01:03:09.927Z,1010.94
2016-09-19T01:03:50.470Z,1010.93
2016-09-19T01:04:31.010Z,1010.95
2016-09-19T01:05:11.557Z,1010.96
2016-09-19T01:05:52.094Z,1010.96
2016-09-19T01:06:32.632Z,1011
2016-09-19T01:07:13.172Z,1011
2016-09-19T01:07:53.710Z,1010.99
2016-09-19T01:08:34.230Z,1010.97
2016-09-19T01:09:14.767Z,1011.02
2016-09-19T01:09:55.306Z,1011
2016-09-19T01:10:35.847Z,1010.96
2016-09-19T01:11:16.395Z,1010.99
2016-09-19T01:11:56.935Z,1011
2016-09-19T01:12:37.480Z,1010.98
2016-09-19T01:13:18.005Z,1011
2016-09-19T01:13:58.545Z,1010.99
2016-09-19T01:14:39.081Z,1011
2016-09-19T01:15:19.677Z,1011.01
2016-09-19T01:16:00.181Z,1010.99
2016-09-19T01:16:40.711Z,1011.04
2016-09-19T01:17:21.254Z,1011.04
2016-09-19T01:18:01.797Z,1011.03
2016-09-19T01:18:42.339Z,1011.04
2016-09-19T01:19:22.890Z,1011.05
2016-09-19T01:20:03.436Z,1011.06
2016-09-19T01:20:43.982Z,1011.03
2016-09-19T01:21:24.520Z,1011.04
2016-09-19T01:22:05.046Z,1011.01
2016-09-19T01:22:45.588Z,1011
2016-09-19T01:23:26.140Z,1011
2016-09-19T01:24:06.672Z,1011.01
2016-09-19T01:24:47.220Z,1010.99
2016-09-19T01:25:27.768Z,1010.98
2016-09-19T01:26:08.303Z,1010.99
2016-09-19T01:26:48.850Z,1011
2016-09-19T01:27:29.387Z,1010.98
2016-09-19T01:28:09.915Z,1011.02
2016-09-19T01:28:50.450Z,1010.97
2016-09-19T01:29:31.007Z,1010.99
2016-09-19T01:30:11.537Z,1010.96
2016-09-19T01:30:52.083Z,1010.98
2016-09-19T01:31:32.616Z,1010.98
2016-09-19T01:32:13.153Z,1010.99
2016-09-19T01:32:53.698Z,1010.99
2016-09-19T01:33:34.240Z,1010.98
2016-09-19T01:34:14.761Z,1010.97
2016-09-19T01:34:55.361Z,1010.98
2016-09-19T01:35:35.908Z,1010.99
2016-09-19T01:36:16.450Z,1010.97
2016-09-19T01:36:56.973Z,1010.98
2016-09-19T01:37:37.513Z,1010.98
2016-09-19T01:38:18.035Z,1010.98
2016-09-19T01:38:58.574Z,1010.97
2016-09-19T01:39:39.112Z,1010.99
2016-09-19T01:40:19.660Z,1010.97
2016-09-19T01:41:00.193Z,1010.94
2016-09-19T01:41:40.720Z,1010.96
2016-09-19T01:42:21.253Z,1010.94
2016-09-19T01:43:01.797Z,1010.96
2016-09-19T01:43:42.342Z,1010.94
2016-09-19T01:44:22.893Z,1010.93
2016-09-19T01:45:03.422Z,1010.96
2016-09-19T01:45:43.965Z,1010.97
2016-09-19T01:46:24.489Z,1010.95
2016-09-19T01:47:05.035Z,1010.98
2016-09-19T01:47:45.560Z,1011
2016-09-19T01:48:26.104Z,1010.97
2016-09-19T01:49:06.646Z,1010.98
2016-09-19T01:49:47.180Z,1011
2016-09-19T01:50:27.702Z,1010.97
2016-09-19T01:51:08.236Z,1010.99
2016-09-19T01:51:48.763Z,1011.01
2016-09-19T01:52:29.296Z,1011.04
2016-09-19T01:53:09.847Z,1011.01
2016-09-19T01:53:50.382Z,1011.04
2016-09-19T01:54:30.909Z,1011.04
2016-09-19T01:55:11.437Z,1011.03
2016-09-19T01:55:51.967Z,1011.08
2016-09-19T01:56:32.500Z,1011.02
2016-09-19T01:57:13.047Z,1011.06
2016-09-19T01:57:53.598Z,1011.08
2016-09-19T01:58:34.143Z,1011.14
2016-09-19T01:59:14.691Z,1011.07
2016-09-19T01:59:55.230Z,1011.08
2016-09-19T02:00:35.770Z,1011.09
2016-09-19T02:01:16.296Z,1011.06
2016-09-19T02:01:56.841Z,1011.08
2016-09-19T02:02:37.374Z,1011.1
2016-09-19T02:03:17.909Z,1011.06
2016-09-19T02:03:58.453Z,1011.09
2016-09-19T02:04:39.004Z,1011.04
2016-09-19T02:05:19.553Z,1011.07
2016-09-19T02:06:00.095Z,1011.07
2016-09-19T02:06:40.637Z,1011.09
2016-09-19T02:07:21.163Z,1011.07
2016-09-19T02:08:01.701Z,1011.07
2016-09-19T02:08:42.246Z,1011.08
2016-09-19T02:09:22.777Z,1011.07
2016-09-19T02:10:03.314Z,1011.08
2016-09-19T02:10:43.850Z,1011.09
2016-09-19T02:11:24.397Z,1011.07
2016-09-19T02:12:04.943Z,1011.08
2016-09-19T02:12:45.477Z,1011.08
2016-09-19T02:13:26.008Z,1011.13
2016-09-19T02:14:06.553Z,1011.1
2016-09-19T02:14:47.090Z,1011.18
2016-09-19T02:15:27.622Z,1011.15
2016-09-19T02:16:08.166Z,1011.16
2016-09-19T02:16:48.711Z,1011.15
2016-09-19T02:17:29.253Z,1011.14
2016-09-19T02:18:09.784Z,1011.16
2016-09-19T02:18:50.307Z,1011.15
2016-09-19T02:19:30.836Z,1011.15
2016-09-19T02:20:11.371Z,1011.18
2016-09-19T02:20:51.926Z,1011.14
2016-09-19T02:21:32.448Z,1011.1
2016-09-19T02:22:12.993Z,1011.14
2016-09-19T02:22:53.514Z,1011.16
2016-09-19T02:23:34.039Z,1011.13
2016-09-19T02:24:14.576Z,1011.18
2016-09-19T02:24:55.120Z,1011.16
2016-09-19T02:25:35.662Z,1011.17
2016-09-19T02:26:16.199Z,1011.17
2016-09-19T02:26:56.747Z,1011.18
2016-09-19T02:27:37.291Z,1011.16
2016-09-19T02:28:17.838Z,1011.19
2016-09-19T02:28:58.382Z,1011.21
2016-09-19T02:29:38.898Z,1011.21
2016-09-19T02:30:19.415Z,1011.23
2016-09-19T02:30:59.953Z,1011.23
2016-09-19T02:31:40.504Z,1011.23
2016-09-19T02:32:21.045Z,1011.26
2016-09-19T02:33:01.570Z,1011.24
2016-09-19T02:33:42.103Z,1011.26
2016-09-19T02:34:22.647Z,1011.27
2016-09-19T02:35:03.190Z,1011.28
2016-09-19T02:35:43.732Z,1011.3
2016-09-19T02:36:24.279Z,1011.28
2016-09-19T02:37:04.827Z,1011.29
2016-09-19T02:37:45.365Z,1011.26
2016-09-19T02:38:25.911Z,1011.28
2016-09-19T02:39:06.437Z,1011.31
2016-09-19T02:39:46.976Z,1011.28
2016-09-19T02:40:27.519Z,1011.27
2016-09-19T02:41:08.052Z,1011.3
2016-09-19T02:41:48.607Z,1011.3
2016-09-19T02:42:29.147Z,1011.28
2016-09-19T02:43:09.690Z,1011.28
2016-09-19T02:43:50.236Z,1011.3
2016-09-19T02:44:30.799Z,1011.31
2016-09-19T02:45:11.316Z,1011.31
2016-09-19T02:45:51.851Z,1011.31
2016-09-19T02:46:32.374Z,1011.32
2016-09-19T02:47:12.921Z,1011.34
2016-09-19T02:47:53.442Z,1011.33
2016-09-19T02:48:33.991Z,1011.32
2016-09-19T02:49:14.538Z,1011.35
2016-09-19T02:49:55.082Z,1011.34
2016-09-19T02:50:35.625Z,1011.35
2016-09-19T02:51:16.145Z,1011.36
2016-09-19T02:51:56.689Z,1011.37
2016-09-19T02:52:37.219Z,1011.38
2016-09-19T02:53:17.780Z,1011.34
2016-09-19T02:53:58.318Z,1011.31
2016-09-19T02:54:38.865Z,1011.33
2016-09-19T02:55:19.398Z,1011.35
2016-09-19T02:55:59.936Z,1011.33
2016-09-19T02:56:40.476Z,1011.34
2016-09-19T02:57:21.022Z,1011.34
2016-09-19T02:58:01.561Z,1011.35
2016-09-19T02:58:42.095Z,1011.38
2016-09-19T02:59:22.632Z,1011.37
2016-09-19T03:00:03.177Z,1011.36
2016-09-19T03:00:43.709Z,1011.37
2016-09-19T03:01:24.245Z,1011.35
2016-09-19T03:02:04.793Z,1011.37
2016-09-19T03:02:45.339Z,1011.34
2016-09-19T03:03:25.864Z,1011.38
2016-09-19T03:04:06.387Z,1011.37
2016-09-19T03:04:46.924Z,1011.36
2016-09-19T03:05:27.522Z,1011.35
2016-09-19T03:06:08.047Z,1011.36
2016-09-19T03:06:48.575Z,1011.35
2016-09-19T03:07:29.101Z,1011.35
2016-09-19T03:08:09.666Z,1011.4
2016-09-19T03:08:50.215Z,1011.37
2016-09-19T03:09:30.764Z,1011.35
2016-09-19T03:10:11.298Z,1011.38
2016-09-19T03:10:51.840Z,1011.35
2016-09-19T03:11:32.387Z,1011.35
2016-09-19T03:12:12.918Z,1011.39
2016-09-19T03:12:53.450Z,1011.41
2016-09-19T03:13:33.983Z,1011.41
2016-09-19T03:14:14.533Z,1011.44
2016-09-19T03:14:55.082Z,1011.42
2016-09-19T03:15:35.628Z,1011.46
2016-09-19T03:16:16.169Z,1011.42
2016-09-19T03:16:56.714Z,1011.41
2016-09-19T03:17:37.255Z,1011.43
2016-09-19T03:18:17.792Z,1011.38
2016-09-19T03:18:58.312Z,1011.4
2016-09-19T03:19:38.837Z,1011.41
2016-09-19T03:20:19.380Z,1011.45
2016-09-19T03:20:59.933Z,1011.42
2016-09-19T03:21:40.472Z,1011.44
2016-09-19T03:22:21.008Z,1011.48
2016-09-19T03:23:01.555Z,1011.43
2016-09-19T03:23:42.100Z,1011.44
2016-09-19T03:24:22.642Z,1011.46
2016-09-19T03:25:03.179Z,1011.49
2016-09-19T03:25:43.716Z,1011.46
2016-09-19T03:26:24.253Z,1011.42
2016-09-19T03:27:04.810Z,1011.46
2016-09-19T03:27:45.334Z,1011.46
2016-09-19T03:28:25.874Z,1011.45
2016-09-19T03:29:06.426Z,1011.47
2016-09-19T03:29:46.965Z,1011.48
2016-09-19T03:30:27.521Z,1011.52
2016-09-19T03:31:08.071Z,1011.51
2016-09-19T03:31:48.623Z,1011.52
2016-09-19T03:32:29.160Z,1011.51
2016-09-19T03:33:09.705Z,1011.54
2016-09-19T03:33:50.249Z,1011.54
2016-09-19T03:34:30.791Z,1011.5
2016-09-19T03:35:11.329Z,1011.49
2016-09-19T03:35:51.865Z,1011.54
2016-09-19T03:36:32.405Z,1011.56
2016-09-19T03:37:12.941Z,1011.55
2016-09-19T03:37:53.488Z,1011.55
2016-09-19T03:38:34.024Z,1011.58
2016-09-19T03:39:14.569Z,1011.59
2016-09-19T03:39:55.115Z,1011.56
2016-09-19T03:40:35.664Z,1011.59
2016-09-19T03:41:16.194Z,1011.6
2016-09-19T03:41:56.733Z,1011.65
2016-09-19T03:42:37.276Z,1011.62
2016-09-19T03:43:17.818Z,1011.66
2016-09-19T03:43:58.381Z,1011.65
2016-09-19T03:44:38.895Z,1011.64
2016-09-19T03:45:19.448Z,1011.66
2016-09-19T03:45:59.993Z,1011.68
2016-09-19T03:46:40.544Z,1011.64
2016-09-19T03:47:21.088Z,1011.61
2016-09-19T03:48:01.635Z,1011.64
2016-09-19T03:48:42.169Z,1011.62
2016-09-19T03:49:22.722Z,1011.6
2016-09-19T03:50:03.266Z,1011.63
2016-09-19T03:50:43.795Z,1011.63
2016-09-19T03:51:24.341Z,1011.61
2016-09-19T03:52:04.878Z,1011.63
2016-09-19T03:52:45.410Z,1011.62
2016-09-19T03:53:25.956Z,1011.6
2016-09-19T03:54:06.514Z,1011.56
2016-09-19T03:54:47.055Z,1011.62
2016-09-19T03:55:27.611Z,1011.57
2016-09-19T03:56:08.156Z,1011.6
2016-09-19T03:56:48.708Z,1011.58
2016-09-19T03:57:29.259Z,1011.57
2016-09-19T03:58:09.804Z,1011.57
2016-09-19T03:58:50.334Z,1011.52
2016-09-19T03:59:30.868Z,1011.54
2016-09-19T04:00:11.386Z,1011.59
2016-09-19T04:00:51.926Z,1011.58
2016-09-19T04:01:32.472Z,1011.56
2016-09-19T04:02:13.013Z,1011.56
2016-09-19T04:02:53.543Z,1011.61
2016-09-19T04:03:34.090Z,1011.6
2016-09-19T04:04:14.640Z,1011.65
2016-09-19T04:04:55.187Z,1011.63
2016-09-19T04:05:35.734Z,1011.62
2016-09-19T04:06:16.258Z,1011.58
2016-09-19T04:06:56.791Z,1011.58
2016-09-19T04:07:37.322Z,1011.56
2016-09-19T04:08:17.867Z,1011.58
2016-09-19T04:08:58.420Z,1011.59
2016-09-19T04:09:38.968Z,1011.59
2016-09-19T04:10:19.516Z,1011.63
2016-09-19T04:11:00.061Z,1011.65
2016-09-19T04:11:40.603Z,1011.62
2016-09-19T04:12:21.149Z,1011.61
2016-09-19T04:13:01.686Z,1011.6
2016-09-19T04:13:42.229Z,1011.61
2016-09-19T04:14:22.764Z,1011.61
2016-09-19T04:15:03.295Z,1011.58
2016-09-19T04:15:43.842Z,1011.58
2016-09-19T04:16:24.384Z,1011.59
2016-09-19T04:17:04.906Z,1011.57
2016-09-19T04:17:45.456Z,1011.6
2016-09-19T04:18:25.990Z,1011.6
2016-09-19T04:19:06.522Z,1011.58
2016-09-19T04:19:47.057Z,1011.61
2016-09-19T04:20:27.584Z,1011.61
2016-09-19T04:21:08.129Z,1011.57
2016-09-19T04:21:48.672Z,1011.61
2016-09-19T04:22:29.232Z,1011.63
2016-09-19T04:23:09.781Z,1011.64
2016-09-19T04:23:50.595Z,1011.66
2016-09-19T04:24:31.128Z,1011.64
2016-09-19T04:25:11.676Z,1011.65
2016-09-19T04:25:52.210Z,1011.65
2016-09-19T04:26:33.008Z,1011.64
2016-09-19T04:27:13.544Z,1011.64
2016-09-19T04:27:54.067Z,1011.66
2016-09-19T04:28:34.616Z,1011.64
2016-09-19T04:29:15.158Z,1011.67
2016-09-19T04:29:55.828Z,1011.65
2016-09-19T04:30:36.761Z,1011.64
2016-09-19T04:31:17.307Z,1011.67
2016-09-19T04:31:57.851Z,1011.66
2016-09-19T04:32:38.393Z,1011.69
2016-09-19T04:33:18.943Z,1011.7
2016-09-19T04:33:59.484Z,1011.7
2016-09-19T04:34:40.044Z,1011.73
2016-09-19T04:35:20.585Z,1011.77
2016-09-19T04:36:01.109Z,1011.77
2016-09-19T04:36:41.643Z,1011.74
2016-09-19T04:37:22.171Z,1011.73
2016-09-19T04:38:02.715Z,1011.75
2016-09-19T04:38:43.254Z,1011.74
2016-09-19T04:39:23.794Z,1011.7
2016-09-19T04:40:04.334Z,1011.75
2016-09-19T04:40:44.865Z,1011.73
2016-09-19T04:41:25.390Z,1011.7
2016-09-19T04:42:05.930Z,1011.71
2016-09-19T04:42:46.452Z,1011.72
2016-09-19T04:43:26.986Z,1011.72
2016-09-19T04:44:07.517Z,1011.72
2016-09-19T04:44:48.041Z,1011.72
2016-09-19T04:45:28.578Z,1011.79
2016-09-19T04:46:09.105Z,1011.78
2016-09-19T04:46:49.651Z,1011.76
2016-09-19T04:47:30.202Z,1011.8
2016-09-19T04:48:10.737Z,1011.73
2016-09-19T04:48:51.253Z,1011.74
2016-09-19T04:49:31.799Z,1011.76
2016-09-19T04:50:12.333Z,1011.76
2016-09-19T04:50:52.877Z,1011.75
2016-09-19T04:51:33.420Z,1011.77
2016-09-19T04:52:13.955Z,1011.74
2016-09-19T04:52:54.517Z,1011.77
2016-09-19T04:53:35.053Z,1011.76
2016-09-19T04:54:15.585Z,1011.75
2016-09-19T04:54:56.122Z,1011.76
2016-09-19T04:55:36.659Z,1011.77
2016-09-19T04:56:17.190Z,1011.75
2016-09-19T04:56:57.732Z,1011.72
2016-09-19T04:57:38.279Z,1011.72
2016-09-19T04:58:18.838Z,1011.72
2016-09-19T04:58:59.386Z,1011.73
2016-09-19T04:59:39.927Z,1011.69
2016-09-19T05:00:20.459Z,1011.67
2016-09-19T05:01:01.003Z,1011.73
2016-09-19T05:01:41.537Z,1011.68
2016-09-19T05:02:22.074Z,1011.74
2016-09-19T05:03:02.624Z,1011.7
2016-09-19T05:03:43.158Z,1011.71
2016-09-19T05:04:23.710Z,1011.73
2016-09-19T05:05:04.247Z,1011.74
2016-09-19T05:05:44.791Z,1011.77
2016-09-19T05:06:25.341Z,1011.78
2016-09-19T05:07:05.886Z,1011.8
2016-09-19T05:07:46.441Z,1011.81
2016-09-19T05:08:26.994Z,1011.8
2016-09-19T05:09:07.536Z,1011.78
2016-09-19T05:09:48.074Z,1011.8
2016-09-19T05:10:28.619Z,1011.8
2016-09-19T05:11:09.172Z,1011.78
2016-09-19T05:11:49.699Z,1011.77
2016-09-19T05:12:30.246Z,1011.78
2016-09-19T05:13:10.790Z,1011.77
2016-09-19T05:13:51.337Z,1011.77
2016-09-19T05:14:31.872Z,1011.75
2016-09-19T05:15:12.423Z,1011.76
2016-09-19T05:15:52.959Z,1011.73
2016-09-19T05:16:33.503Z,1011.71
2016-09-19T05:17:14.056Z,1011.73
2016-09-19T05:17:54.594Z,1011.71
2016-09-19T05:18:35.127Z,1011.67
2016-09-19T05:19:15.677Z,1011.67
2016-09-19T05:19:56.209Z,1011.66
2016-09-19T05:20:36.758Z,1011.62
2016-09-19T05:21:17.273Z,1011.66
2016-09-19T05:21:57.813Z,1011.66
2016-09-19T05:22:38.359Z,1011.66
2016-09-19T05:23:18.908Z,1011.64
2016-09-19T05:23:59.458Z,1011.68
2016-09-19T05:24:40.015Z,1011.68
2016-09-19T05:25:20.563Z,1011.68
2016-09-19T05:26:01.099Z,1011.68
2016-09-19T05:26:41.649Z,1011.67
2016-09-19T05:27:22.182Z,1011.63
2016-09-19T05:28:02.732Z,1011.65
2016-09-19T05:28:43.261Z,1011.66
2016-09-19T05:29:23.812Z,1011.67
2016-09-19T05:30:04.338Z,1011.62
2016-09-19T05:30:44.870Z,1011.65
2016-09-19T05:31:25.426Z,1011.68
2016-09-19T05:32:05.968Z,1011.65
2016-09-19T05:32:46.517Z,1011.69
2016-09-19T05:33:27.055Z,1011.69
2016-09-19T05:34:07.581Z,1011.71
2016-09-19T05:34:48.089Z,1011.69
2016-09-19T05:35:28.644Z,1011.74
2016-09-19T05:36:09.166Z,1011.75
2016-09-19T05:36:49.694Z,1011.75
2016-09-19T05:37:30.227Z,1011.78
2016-09-19T05:38:10.746Z,1011.81
2016-09-19T05:38:51.268Z,1011.78
2016-09-19T05:39:31.800Z,1011.8
2016-09-19T05:40:12.327Z,1011.78
2016-09-19T05:40:52.841Z,1011.76
2016-09-19T05:41:33.378Z,1011.78
2016-09-19T05:42:13.911Z,1011.82
2016-09-19T05:42:54.450Z,1011.79
2016-09-19T05:43:34.997Z,1011.8
2016-09-19T05:44:15.518Z,1011.78
2016-09-19T05:44:56.051Z,1011.76
2016-09-19T05:45:36.610Z,1011.83
2016-09-19T05:46:17.126Z,1011.8
2016-09-19T05:46:57.677Z,1011.79
2016-09-19T05:47:38.194Z,1011.82
2016-09-19T05:48:18.728Z,1011.81
2016-09-19T05:48:59.259Z,1011.79
2016-09-19T05:49:39.799Z,1011.78
2016-09-19T05:50:20.325Z,1011.8
2016-09-19T05:51:00.871Z,1011.79
2016-09-19T05:51:41.401Z,1011.85
2016-09-19T05:52:21.928Z,1011.85
2016-09-19T05:53:02.459Z,1011.83
2016-09-19T05:53:43.018Z,1011.89
2016-09-19T05:54:23.554Z,1011.88
2016-09-19T05:55:04.106Z,1011.87
2016-09-19T05:55:44.640Z,1011.86
2016-09-19T05:56:25.186Z,1011.83
2016-09-19T05:57:05.722Z,1011.87
2016-09-19T05:57:46.242Z,1011.88
2016-09-19T05:58:26.763Z,1011.87
2016-09-19T05:59:07.292Z,1011.89
2016-09-19T05:59:47.822Z,1011.92
2016-09-19T06:00:28.360Z,1011.91
2016-09-19T06:01:08.868Z,1011.94
2016-09-19T06:01:49.410Z,1011.91
2016-09-19T06:02:29.967Z,1011.9
2016-09-19T06:03:10.497Z,1011.89
2016-09-19T06:03:51.052Z,1011.94
2016-09-19T06:04:31.569Z,1011.89
2016-09-19T06:05:12.105Z,1011.88
2016-09-19T06:05:52.645Z,1011.9
2016-09-19T06:06:33.165Z,1011.88
2016-09-19T06:07:13.699Z,1011.91
2016-09-19T06:07:54.216Z,1011.93
2016-09-19T06:08:34.744Z,1011.89
2016-09-19T06:09:15.270Z,1011.9
2016-09-19T06:09:55.815Z,1011.87
2016-09-19T06:10:36.346Z,1011.9
2016-09-19T06:11:16.869Z,1011.9
2016-09-19T06:11:57.390Z,1011.92
2016-09-19T06:12:37.912Z,1011.93
2016-09-19T06:13:18.464Z,1011.95
2016-09-19T06:13:59.012Z,1011.95
2016-09-19T06:14:39.548Z,1011.95
2016-09-19T06:15:20.094Z,1011.97
2016-09-19T06:16:00.629Z,1011.97
2016-09-19T06:16:41.173Z,1011.97
2016-09-19T06:17:21.704Z,1011.95
2016-09-19T06:18:02.236Z,1011.93
2016-09-19T06:18:42.777Z,1011.92
2016-09-19T06:19:23.297Z,1011.97
2016-09-19T06:20:03.821Z,1011.94
2016-09-19T06:20:44.347Z,1011.92
2016-09-19T06:21:24.904Z,1011.98
2016-09-19T06:22:05.406Z,1011.96
2016-09-19T06:22:45.942Z,1011.98
2016-09-19T06:23:26.473Z,1011.99
2016-09-19T06:24:06.989Z,1011.98
2016-09-19T06:24:47.525Z,1012.02
2016-09-19T06:25:28.029Z,1012
2016-09-19T06:26:08.572Z,1012.02
2016-09-19T06:26:49.074Z,1012.01
2016-09-19T06:27:29.600Z,1012.02
2016-09-19T06:28:10.143Z,1012.06
2016-09-19T06:28:50.676Z,1012.06
2016-09-19T06:29:31.215Z,1012.08
2016-09-19T06:30:11.729Z,1012.07
2016-09-19T06:30:52.251Z,1012.07
2016-09-19T06:31:32.804Z,1012.1
2016-09-19T06:32:13.322Z,1012.09
2016-09-19T06:32:53.836Z,1012.09
2016-09-19T06:33:34.343Z,1012.11
2016-09-19T06:34:14.893Z,1012.11
2016-09-19T06:34:55.416Z,1012.08
2016-09-19T06:35:35.960Z,1012.11
2016-09-19T06:36:16.488Z,1012.12
2016-09-19T06:36:57.027Z,1012.09
2016-09-19T06:37:37.550Z,1012.05
2016-09-19T06:38:18.086Z,1012.1
2016-09-19T06:38:58.612Z,1012.12
2016-09-19T06:39:39.147Z,1012.12
2016-09-19T06:40:19.676Z,1012.12
2016-09-19T06:41:00.204Z,1012.14
2016-09-19T06:41:40.742Z,1012.11
2016-09-19T06:42:21.286Z,1012.14
2016-09-19T06:43:01.833Z,1012.14
2016-09-19T06:43:42.355Z,1012.15
2016-09-19T06:44:22.881Z,1012.13
2016-09-19T06:45:03.406Z,1012.11
2016-09-19T06:45:43.950Z,1012.14
2016-09-19T06:46:24.491Z,1012.14
2016-09-19T06:47:05.030Z,1012.18
2016-09-19T06:47:45.553Z,1012.12
2016-09-19T06:48:26.081Z,1012.12
2016-09-19T06:49:06.618Z,1012.16
2016-09-19T06:49:47.184Z,1012.17
2016-09-19T06:50:27.719Z,1012.13
2016-09-19T06:53:22.534Z,1012.15
2016-09-19T06:54:03.076Z,1012.12
2016-09-19T06:54:43.617Z,1012.14
2016-09-19T06:55:24.176Z,1012.15
2016-09-19T06:56:04.717Z,1012.13
2016-09-19T06:56:45.265Z,1012.14
2016-09-19T06:57:25.800Z,1012.09
2016-09-19T06:58:06.331Z,1012.13
2016-09-19T06:58:46.858Z,1012.12
2016-09-19T06:59:27.392Z,1012.12
2016-09-19T07:00:07.918Z,1012.13
2016-09-19T07:00:48.469Z,1012.14
2016-09-19T07:01:28.992Z,1012.15
2016-09-19T07:02:09.509Z,1012.19
2016-09-19T07:02:50.098Z,1012.18
2016-09-19T07:03:30.708Z,1012.15
2016-09-19T07:04:11.233Z,1012.18
2016-09-19T07:04:51.765Z,1012.19
2016-09-19T07:05:32.299Z,1012.18
2016-09-19T07:06:12.833Z,1012.17
2016-09-19T07:06:53.365Z,1012.19
2016-09-19T07:07:33.900Z,1012.18
2016-09-19T07:08:14.438Z,1012.19
2016-09-19T07:08:54.979Z,1012.23
2016-09-19T07:09:35.497Z,1012.18
2016-09-19T07:10:16.119Z,1012.21
2016-09-19T07:10:56.651Z,1012.19
2016-09-19T07:11:37.183Z,1012.21
2016-09-19T07:12:17.736Z,1012.24
2016-09-19T07:12:58.269Z,1012.25
2016-09-19T07:13:38.783Z,1012.25
2016-09-19T07:14:19.321Z,1012.25
2016-09-19T07:14:59.938Z,1012.27
2016-09-19T07:15:40.465Z,1012.3
2016-09-19T07:16:20.977Z,1012.32
2016-09-19T07:17:01.507Z,1012.31
2016-09-19T07:17:42.060Z,1012.32
2016-09-19T07:18:22.586Z,1012.3
2016-09-19T07:19:03.135Z,1012.33
2016-09-19T07:19:43.677Z,1012.32
2016-09-19T07:20:24.213Z,1012.31
2016-09-19T07:21:04.758Z,1012.3
2016-09-19T07:21:45.289Z,1012.32
2016-09-19T07:22:25.809Z,1012.32
2016-09-19T07:23:06.339Z,1012.36
2016-09-19T07:23:46.870Z,1012.31
2016-09-19T07:24:27.408Z,1012.32
2016-09-19T07:25:07.951Z,1012.34
2016-09-19T07:25:48.479Z,1012.36
2016-09-19T07:26:29.013Z,1012.4
2016-09-19T07:27:09.540Z,1012.33
2016-09-19T07:27:50.085Z,1012.36
2016-09-19T07:28:30.591Z,1012.37
2016-09-19T07:29:11.118Z,1012.37
2016-09-19T07:29:51.652Z,1012.36
2016-09-19T07:30:32.195Z,1012.38
2016-09-19T07:31:12.732Z,1012.38
2016-09-19T07:31:53.265Z,1012.43
2016-09-19T07:32:33.812Z,1012.41
2016-09-19T07:33:14.353Z,1012.45
2016-09-19T07:33:54.883Z,1012.42
2016-09-19T07:34:35.425Z,1012.43
2016-09-19T07:35:15.974Z,1012.45
2016-09-19T07:35:56.500Z,1012.47
2016-09-19T07:36:37.051Z,1012.47
2016-09-19T07:37:17.600Z,1012.44
2016-09-19T07:37:58.147Z,1012.48
2016-09-19T07:38:38.682Z,1012.48
2016-09-19T07:39:19.207Z,1012.45
2016-09-19T07:39:59.729Z,1012.49
2016-09-19T07:40:40.272Z,1012.47
2016-09-19T07:41:20.814Z,1012.49
2016-09-19T07:42:01.342Z,1012.47
2016-09-19T07:42:41.876Z,1012.49
2016-09-19T07:43:22.392Z,1012.54
2016-09-19T07:44:02.921Z,1012.51
2016-09-19T07:44:43.461Z,1012.52
2016-09-19T07:45:24.004Z,1012.55
2016-09-19T07:46:04.541Z,1012.56
2016-09-19T07:46:45.072Z,1012.58
2016-09-19T07:47:25.611Z,1012.59
2016-09-19T07:48:06.148Z,1012.59
2016-09-19T07:48:46.694Z,1012.6
2016-09-19T07:49:27.225Z,1012.59
2016-09-19T07:50:07.760Z,1012.62
2016-09-19T07:50:48.307Z,1012.59
2016-09-19T07:51:28.843Z,1012.61
2016-09-19T07:52:09.392Z,1012.58
2016-09-19T07:52:49.926Z,1012.58
2016-09-19T07:53:30.471Z,1012.57
2016-09-19T07:54:10.992Z,1012.57
2016-09-19T07:54:51.522Z,1012.58
2016-09-19T07:55:32.060Z,1012.59
2016-09-19T07:56:12.586Z,1012.59
2016-09-19T07:56:53.128Z,1012.6
2016-09-19T07:57:33.654Z,1012.6
2016-09-19T07:58:14.172Z,1012.59
2016-09-19T07:58:54.717Z,1012.61
2016-09-19T07:59:35.236Z,1012.61
2016-09-19T08:00:15.757Z,1012.61
2016-09-19T08:00:56.292Z,1012.61
2016-09-19T08:01:36.820Z,1012.61
2016-09-19T08:02:17.365Z,1012.62
2016-09-19T08:02:57.904Z,1012.66
2016-09-19T08:03:38.449Z,1012.64
2016-09-19T08:04:18.995Z,1012.67
2016-09-19T08:04:59.514Z,1012.66
2016-09-19T08:05:40.060Z,1012.69
2016-09-19T08:06:20.610Z,1012.69
2016-09-19T08:07:01.141Z,1012.72
2016-09-19T08:07:41.688Z,1012.75
2016-09-19T08:08:22.220Z,1012.72
2016-09-19T08:09:02.756Z,1012.75
2016-09-19T08:09:43.296Z,1012.75
2016-09-19T08:10:23.832Z,1012.78
2016-09-19T08:11:04.350Z,1012.81
2016-09-19T08:11:44.887Z,1012.78
2016-09-19T08:12:25.427Z,1012.79
2016-09-19T08:13:05.972Z,1012.79
2016-09-19T08:13:46.499Z,1012.8
2016-09-19T08:14:27.021Z,1012.81